Date,TemperatureHighF,TemperatureAvgF,TemperatureLowF,DewpointHighF,DewpointAvgF,DewpointLowF,HumidityHigh,HumidityAvg,HumidityLow,PressureMaxIn,PressureMinIn,WindSpeedMaxMPH,WindSpeedAvgMPH,GustSpeedMaxMPH,PrecipitationSumIn
2013-1-17,51.6,33.4,30.7,31.0,26.4,0.0,100,79,24,27.31,17.84,12,3,12,16.79
2013-1-18,41.0,29.1,22.3,23.6,17.4,12.4,83,62,31,27.58,27.31,4,0,4,16.96
2013-1-22,42.3,20.8,17.1,15.2,-2.2,-5.3,36,36,33,27.52,27.17,9,4,9,17.00
2013-1-25,48.6,40.7,19.8,33.9,27.8,-4.1,94,61,34,27.26,27.02,28,6,28,17.25
2013-1-26,51.3,35.5,25.5,33.6,22.6,11.2,93,63,26,27.37,27.14,8,2,8,17.25
2013-1-27,56.1,38.1,21.4,29.7,20.2,15.8,87,52,25,27.49,27.37,4,1,6,17.25
2013-1-28,45.7,39.3,37.4,33.8,30.1,20.3,85,71,38,27.46,27.40,13,2,13,17.25
2013-2-1,42.4,18.5,15.6,27.0,3.5,0.7,55,51,46,27.37,27.31,3,1,3,20.57
2013-2-2,38.7,27.2,15.3,29.1,12.2,0.6,82,53,32,27.37,27.05,25,3,25,17.25
2013-2-3,43.7,34.7,25.5,26.0,13.1,7.1,81,42,28,27.14,26.96,18,4,18,17.25
2013-2-4,53.1,33.3,19.6,19.1,12.3,4.0,75,47,16,27.17,26.99,15,2,15,17.25
2013-2-5,44.8,36.8,29.8,26.3,19.9,15.4,61,50,40,27.08,26.99,11,2,11,17.25
2013-2-16,45.3,27.0,21.0,25.8,7.5,-5.5,67,44,25,27.08,26.90,15,4,15,22.10
2013-2-17,35.8,25.3,19.2,5.1,-2.7,-7.4,51,30,18,27.26,27.05,19,4,19,0.00
2013-2-18,56.8,35.4,15.8,20.2,7.9,2.2,66,36,15,27.37,27.17,23,3,23,22.10
2013-2-19,50.5,40.8,33.1,35.8,14.7,-3.9,89,39,18,27.17,26.93,24,4,24,22.35
2013-2-20,47.5,32.1,18.7,6.8,1.2,-7.4,53,28,17,27.23,27.11,12,2,12,22.35
2013-2-21,64.2,39.1,19.8,35.8,12.5,4.0,81,40,13,27.26,27.05,6,2,6,0.33
2013-2-22,55.2,42.8,37.2,38.7,32.3,23.4,92,68,45,27.23,27.11,10,2,10,23.02
2013-2-23,57.6,47.0,39.9,48.5,40.5,36.5,98,80,49,27.14,26.93,7,1,7,0.16
2013-2-24,58.3,41.3,27.3,39.2,24.5,6.4,98,61,17,27.17,26.99,13,2,13,23.18
2013-2-25,52.7,37.0,25.3,26.6,18.1,12.8,80,51,24,27.14,26.99,8,1,8,0.00
2013-2-26,55.0,42.3,36.3,40.1,29.6,18.4,93,64,31,27.02,26.58,13,3,13,0.66
2013-2-27,56.3,42.5,30.7,30.1,18.0,8.0,78,40,18,26.87,26.72,25,3,25,23.84
2013-2-28,42.4,34.4,29.8,16.0,11.9,9.1,52,39,29,26.99,26.78,19,3,19,0.05
2013-3-1,35.6,31.9,29.3,20.9,16.8,0.0,66,53,47,26.99,26.93,7,2,7,0.00
2013-3-2,37.2,30.3,23.9,23.1,16.4,0.0,100,57,32,27.02,26.90,13,3,13,0.00
2013-3-3,32.7,23.9,16.3,13.2,8.7,3.0,68,53,34,27.11,26.96,12,3,12,23.89
2013-3-4,54.5,32.1,13.5,24.2,10.0,4.1,74,46,15,27.20,27.05,6,2,6,0.00
2013-3-5,33.6,32.0,30.6,24.0,22.3,20.0,73,67,63,27.11,27.05,5,2,5,0.00
2013-3-7,42.3,34.9,26.4,19.9,17.5,14.0,67,50,38,27.34,27.08,11,3,11,24.71
2013-3-8,55.4,36.1,24.4,18.9,13.2,2.5,69,45,15,27.40,27.28,13,2,13,24.71
2013-3-9,69.1,43.8,21.7,24.6,14.9,7.8,73,39,12,27.40,27.23,7,2,7,0.00
2013-3-10,69.8,51.7,36.7,29.1,18.3,8.0,64,32,12,27.28,27.14,11,3,13,0.00
2013-3-11,57.9,54.0,49.3,49.0,34.7,19.7,92,50,26,27.20,26.87,38,5,38,25.42
2013-3-12,49.5,46.9,41.7,47.3,42.7,35.9,93,85,79,26.93,26.87,8,2,8,25.54
2013-3-15,59.0,55.7,38.8,34.1,26.2,24.6,83,34,28,27.05,26.93,8,2,8,25.54
2013-3-16,73.8,62.5,52.9,31.6,25.7,19.4,44,25,14,27.05,26.87,21,4,21,25.42
2013-3-17,71.4,59.1,48.0,38.7,28.5,15.8,64,34,15,27.08,26.96,13,3,13,25.54
2013-3-18,57.9,51.2,41.5,45.5,37.0,30.2,94,61,36,27.08,26.90,57,3,57,26.46
2013-3-19,56.8,44.6,31.8,42.2,20.8,-0.3,98,48,15,27.20,26.96,20,3,20,25.42
2013-3-20,32.0,29.6,27.5,11.4,10.2,8.5,49,44,41,27.20,27.14,3,1,3,0.00
2013-3-21,37.6,29.7,17.4,10.1,1.9,-6.8,48,31,19,27.14,26.93,10,4,13,0.04
2013-3-22,51.6,33.1,18.5,16.9,7.1,-0.3,57,36,16,27.11,26.99,8,2,8,0.00
2013-3-23,57.2,43.0,34.9,37.2,27.5,15.3,82,55,37,27.08,26.90,6,2,6,26.54
2013-3-24,52.7,46.0,41.5,41.0,34.5,19.7,91,66,39,26.96,26.52,17,3,17,27.53
2013-3-25,42.8,32.6,27.5,21.0,11.9,5.1,60,42,32,26.99,26.61,21,4,21,27.53
2013-3-26,36.9,30.2,25.3,17.6,12.6,8.2,68,48,32,27.26,26.96,16,3,16,0.04
2013-3-27,47.7,34.8,26.4,16.0,11.3,4.4,57,39,23,27.31,27.20,13,3,13,0.00
2013-3-28,53.8,35.4,20.5,18.7,11.7,1.2,81,44,15,27.37,27.26,18,2,18,0.00
2013-3-29,53.8,35.4,21.2,31.4,17.4,9.2,76,51,19,27.40,27.28,8,1,8,0.09
2013-3-30,61.9,47.9,37.8,42.5,28.8,14.4,95,55,16,27.28,27.11,9,2,9,0.16
2013-3-31,60.4,51.8,46.2,49.6,41.7,31.3,95,72,35,27.14,26.93,13,2,13,28.49
2013-4-1,61.3,50.9,39.9,49.4,30.0,15.2,94,53,22,27.11,26.99,15,3,15,28.53
2013-4-2,57.9,44.4,31.1,20.6,12.5,2.6,61,29,14,27.26,27.11,57,3,57,0.00
2013-4-3,41.0,36.5,29.3,14.5,10.0,4.0,46,33,27,27.31,27.23,7,2,7,0.00
2013-11-15,52.0,36.0,23.5,43.6,19.4,5.3,82,51,33,27.40,27.23,8,1,8,0.17
2013-11-16,69.3,54.6,45.3,55.8,41.3,28.7,98,66,24,27.31,27.23,7,2,7,0.00
2013-11-17,65.7,60.8,55.6,60.0,39.5,0.0,97,47,32,27.28,27.02,19,3,19,0.66
2013-11-18,66.2,55.3,41.2,51.9,32.2,6.2,84,48,13,27.23,26.99,17,2,17,0.17
2013-11-19,57.0,38.8,31.1,18.8,11.0,2.6,53,33,15,27.28,27.17,10,2,10,1.00
2013-11-20,55.2,37.7,27.7,18.5,12.2,2.5,64,37,15,27.46,27.25,6,2,8,1.00
2013-11-21,59.2,47.4,37.6,46.0,30.0,13.6,92,54,33,27.52,27.40,6,1,6,0.00
2013-11-22,66.9,56.1,46.4,52.9,45.5,35.5,98,72,33,27.46,27.28,17,1,17,1.00
2013-11-23,55.0,46.9,36.5,48.0,35.4,14.9,78,65,39,27.34,27.23,10,3,10,0.00
2013-11-24,36.5,24.6,16.3,3.9,-3.5,-12.4,45,30,17,27.52,27.31,11,3,11,0.00
2013-11-25,38.5,22.3,15.1,24.9,2.4,-4.7,70,43,19,27.49,27.26,4,0,5,0.00
2013-11-26,43.7,40.4,33.6,42.1,36.1,21.2,98,85,60,27.26,26.75,6,0,6,3.57
2013-11-27,40.6,27.8,18.5,36.3,14.9,0.0,100,59,36,27.26,26.75,57,4,57,0.25
2013-11-28,48.6,25.2,11.1,16.7,8.0,-0.8,73,50,16,27.49,27.23,4,1,4,0.09
2013-11-29,57.4,31.4,19.2,23.9,14.3,4.3,78,55,14,27.64,27.49,5,1,5,3.91
2013-11-30,55.2,33.4,22.8,20.4,14.0,7.1,76,50,15,27.61,27.37,5,1,115,3.91
2013-12-1,61.2,37.3,25.9,27.6,17.8,4.6,80,53,14,27.40,27.11,13,2,13,0.00
2013-12-2,53.4,41.5,28.6,32.9,25.7,0.0,77,56,31,27.11,26.96,6,1,8,0.00
2013-12-3,58.6,47.9,40.3,46.3,35.9,29.8,93,66,35,27.02,26.93,11,1,11,3.91
2013-12-4,67.5,52.1,40.3,59.2,37.9,27.6,98,67,23,27.49,27.02,17,2,17,2.91
2013-12-5,73.0,62.7,56.8,60.1,46.5,32.9,98,60,24,27.20,27.11,14,2,14,0.29
2013-12-6,73.0,63.9,49.6,63.0,48.3,32.9,98,63,24,27.20,27.05,26,3,26,0.95
2013-12-7,50.2,42.1,37.6,46.2,31.7,26.1,86,67,44,27.46,27.17,7,2,7,5.19
2013-12-8,55.6,44.4,39.2,54.7,38.2,31.6,98,79,66,27.40,27.17,10,1,10,5.98
2013-12-9,60.4,53.4,44.1,56.4,44.7,37.5,98,73,47,27.23,27.11,19,2,19,0.58
2013-12-10,46.2,37.4,22.6,42.7,26.2,10.6,91,66,35,27.37,27.02,12,2,12,0.70
2013-12-11,53.6,30.7,17.6,19.1,10.3,-0.7,81,48,15,27.49,27.34,10,1,10,0.00
2013-12-12,42.3,27.7,20.1,14.3,6.8,-5.9,72,44,16,27.46,27.37,6,2,8,0.00
2013-12-13,55.4,31.2,15.3,16.5,8.1,-0.3,71,42,15,27.43,27.26,5,1,5,0.00
2013-12-14,54.7,44.1,34.5,40.4,27.2,8.5,85,53,29,27.26,26.87,19,2,19,7.92
2013-12-15,51.8,36.3,25.3,35.5,21.3,14.0,71,55,36,27.23,26.84,16,2,16,0.00
2013-12-16,52.5,34.4,22.1,31.7,14.6,2.6,96,53,16,27.26,27.17,12,2,15,7.92
2013-12-17,57.6,39.7,24.4,25.7,13.5,-1.8,87,45,14,27.26,27.05,20,2,20,0.00
2013-12-18,51.3,33.1,21.9,11.5,3.8,-6.9,59,31,16,27.37,27.20,10,1,10,7.92
2013-12-19,65.1,40.5,21.6,16.3,10.8,5.8,66,36,13,27.40,27.26,13,2,229,0.00
2013-12-20,59.5,59.5,59.5,10.3,10.3,10.3,14,14,14,27.28,27.28,2,2,3,0.00
2013-12-21,67.8,62.6,53.6,49.5,40.2,10.3,60,45,14,27.28,27.02,26,4,26,8.01
2013-12-22,68.4,57.9,52.2,53.2,47.1,33.7,98,72,28,27.23,27.02,20,2,30,10.75
2013-12-23,52.5,44.0,32.7,51.8,37.8,20.8,98,79,60,27.34,27.17,11,3,11,10.87
2013-12-24,34.9,27.6,16.9,20.8,10.6,0.6,64,50,31,27.49,27.31,14,3,14,10.87
2013-12-25,48.4,25.7,13.6,15.2,7.4,1.0,72,50,16,27.52,27.34,2,0,2,0.00
2013-12-26,37.0,23.7,18.7,17.4,13.2,9.2,80,65,31,27.46,27.34,2,0,2,10.87
2013-12-27,54.1,30.5,19.2,22.8,12.5,1.9,79,53,15,27.55,27.40,5,1,6,9.87
2013-12-28,41.5,31.2,18.7,39.2,20.3,9.1,98,66,30,27.52,27.14,3,0,3,0.00
2013-12-29,49.8,41.7,31.6,45.5,36.7,28.2,98,84,51,27.14,26.90,7,1,7,0.00
2013-12-30,42.4,35.8,31.1,38.6,30.2,0.0,98,81,58,27.23,27.11,7,1,7,10.87
2013-12-31,41.9,32.3,24.4,25.2,17.0,1.0,87,59,21,27.43,27.23,8,1,10,0.00
2014-1-1,30.0,29.0,28.2,13.6,11.3,9.4,53,47,43,27.23,27.20,4,2,4,0.87
2014-1-2,49.8,35.3,18.3,42.2,19.6,-2.3,87,54,32,27.17,26.84,21,3,21,0.25